sensor_id;sensor_type;location;lat;lon;timestamp;P1;durP1;ratioP1;P2;durP2;ratioP2
63218;SDS011;49320;52.512;13.448;2023-03-20T00:01:12;3.33;;;2.75;;
63218;SDS011;49320;52.512;13.448;2023-03-20T00:03:56;2.78;;;2.40;;
63218;SDS011;49320;52.512;13.448;2023-03-20T00:06:24;3.72;;;2.28;;
63218;SDS011;49320;52.512;13.448;2023-03-20T00:08:56;3.83;;;2.40;;
63218;SDS011;49320;52.512;13.448;2023-03-20T00:13:55;4.57;;;3.00;;
63218;SDS011;49320;52.512;13.448;2023-03-20T00:16:32;3.80;;;2.20;;
63218;SDS011;49320;52.512;13.448;2023-03-20T00:19:05;4.13;;;2.40;;
63218;SDS011;49320;52.512;13.448;2023-03-20T00:21:42;4.47;;;2.90;;
63218;SDS011;49320;52.512;13.448;2023-03-20T00:24:11;6.22;;;4.07;;
63218;SDS011;49320;52.512;13.448;2023-03-20T00:26:40;7.70;;;4.95;;
63218;SDS011;49320;52.512;13.448;2023-03-20T00:29:12;6.55;;;4.10;;
63218;SDS011;49320;52.512;13.448;2023-03-20T00:31:43;5.13;;;3.75;;
63218;SDS011;49320;52.512;13.448;2023-03-20T00:34:11;4.93;;;3.50;;
63218;SDS011;49320;52.512;13.448;2023-03-20T00:36:41;5.32;;;3.20;;
63218;SDS011;49320;52.512;13.448;2023-03-20T00:39:08;3.45;;;2.95;;
63218;SDS011;49320;52.512;13.448;2023-03-20T00:46:46;4.00;;;2.70;;
63218;SDS011;49320;52.512;13.448;2023-03-20T00:49:21;3.50;;;2.40;;
63218;SDS011;49320;52.512;13.448;2023-03-20T00:52:01;3.47;;;2.80;;
63218;SDS011;49320;52.512;13.448;2023-03-20T00:54:29;3.80;;;2.65;;
63218;SDS011;49320;52.512;13.448;2023-03-20T00:57:00;2.75;;;2.10;;
63218;SDS011;49320;52.512;13.448;2023-03-20T01:00:00;3.47;;;2.20;;
63218;SDS011;49320;52.512;13.448;2023-03-20T01:02:43;2.78;;;2.20;;
63218;SDS011;49320;52.512;13.448;2023-03-20T01:05:10;3.35;;;2.10;;
63218;SDS011;49320;52.512;13.448;2023-03-20T01:07:38;2.83;;;2.33;;
63218;SDS011;49320;52.512;13.448;2023-03-20T01:10:05;4.95;;;2.63;;
63218;SDS011;49320;52.512;13.448;2023-03-20T01:12:33;3.30;;;2.35;;
63218;SDS011;49320;52.512;13.448;2023-03-20T01:14:59;3.22;;;2.53;;
63218;SDS011;49320;52.512;13.448;2023-03-20T01:17:26;3.38;;;2.58;;
63218;SDS011;49320;52.512;13.448;2023-03-20T01:19:54;3.28;;;2.60;;
63218;SDS011;49320;52.512;13.448;2023-03-20T01:22:21;4.05;;;2.92;;
63218;SDS011;49320;52.512;13.448;2023-03-20T01:24:49;3.72;;;2.67;;
63218;SDS011;49320;52.512;13.448;2023-03-20T01:27:17;4.68;;;3.38;;
63218;SDS011;49320;52.512;13.448;2023-03-20T01:29:45;4.05;;;3.17;;
63218;SDS011;49320;52.512;13.448;2023-03-20T01:32:14;4.60;;;3.25;;
63218;SDS011;49320;52.512;13.448;2023-03-20T01:34:44;5.43;;;4.15;;
63218;SDS011;49320;52.512;13.448;2023-03-20T01:37:13;5.13;;;3.90;;
63218;SDS011;49320;52.512;13.448;2023-03-20T01:39:48;4.47;;;3.60;;
63218;SDS011;49320;52.512;13.448;2023-03-20T01:42:15;5.07;;;3.33;;
63218;SDS011;49320;52.512;13.448;2023-03-20T01:44:43;5.05;;;3.92;;
63218;SDS011;49320;52.512;13.448;2023-03-20T01:47:21;4.28;;;3.67;;
63218;SDS011;49320;52.512;13.448;2023-03-20T01:53:05;4.43;;;3.30;;
63218;SDS011;49320;52.512;13.448;2023-03-20T01:55:46;3.38;;;2.92;;
63218;SDS011;49320;52.512;13.448;2023-03-20T01:58:20;4.43;;;3.25;;
63218;SDS011;49320;52.512;13.448;2023-03-20T02:00:58;3.75;;;2.83;;
63218;SDS011;49320;52.512;13.448;2023-03-20T02:03:25;4.85;;;3.42;;
63218;SDS011;49320;52.512;13.448;2023-03-20T02:05:52;4.85;;;3.47;;
63218;SDS011;49320;52.512;13.448;2023-03-20T02:08:29;5.78;;;3.60;;
63218;SDS011;49320;52.512;13.448;2023-03-20T02:11:01;4.00;;;3.50;;
63218;SDS011;49320;52.512;13.448;2023-03-20T02:13:29;4.03;;;3.28;;
63218;SDS011;49320;52.512;13.448;2023-03-20T02:16:00;4.72;;;3.72;;
63218;SDS011;49320;52.512;13.448;2023-03-20T02:18:34;3.50;;;3.13;;
63218;SDS011;49320;52.512;13.448;2023-03-20T02:29:39;4.10;;;3.40;;
63218;SDS011;49320;52.512;13.448;2023-03-20T02:42:14;4.50;;;3.15;;
63218;SDS011;49320;52.512;13.448;2023-03-20T02:45:02;4.90;;;3.40;;
63218;SDS011;49320;52.512;13.448;2023-03-20T02:47:47;4.78;;;3.55;;
63218;SDS011;49320;52.512;13.448;2023-03-20T02:56:19;4.82;;;3.30;;
63218;SDS011;49320;52.512;13.448;2023-03-20T02:59:06;5.55;;;2.85;;
63218;SDS011;49320;52.512;13.448;2023-03-20T03:02:16;6.13;;;3.30;;
63218;SDS011;49320;52.512;13.448;2023-03-20T03:04:59;5.35;;;3.30;;
63218;SDS011;49320;52.512;13.448;2023-03-20T03:07:32;5.82;;;3.20;;
63218;SDS011;49320;52.512;13.448;2023-03-20T03:10:07;4.43;;;3.28;;
63218;SDS011;49320;52.512;13.448;2023-03-20T03:12:52;4.53;;;3.17;;
63218;SDS011;49320;52.512;13.448;2023-03-20T03:17:58;4.68;;;3.17;;
63218;SDS011;49320;52.512;13.448;2023-03-20T03:20:32;3.55;;;3.20;;
63218;SDS011;49320;52.512;13.448;2023-03-20T03:23:04;3.70;;;3.33;;
63218;SDS011;49320;52.512;13.448;2023-03-20T03:25:33;4.38;;;3.20;;
63218;SDS011;49320;52.512;13.448;2023-03-20T03:30:57;4.10;;;3.03;;
63218;SDS011;49320;52.512;13.448;2023-03-20T03:33:29;3.92;;;3.15;;
63218;SDS011;49320;52.512;13.448;2023-03-20T03:36:02;6.70;;;2.97;;
63218;SDS011;49320;52.512;13.448;2023-03-20T03:41:44;5.15;;;3.58;;
63218;SDS011;49320;52.512;13.448;2023-03-20T03:44:25;3.95;;;3.05;;
63218;SDS011;49320;52.512;13.448;2023-03-20T03:50:01;4.28;;;3.47;;
63218;SDS011;49320;52.512;13.448;2023-03-20T03:52:36;4.93;;;4.07;;
63218;SDS011;49320;52.512;13.448;2023-03-20T03:55:10;5.75;;;4.43;;
63218;SDS011;49320;52.512;13.448;2023-03-20T03:57:45;6.55;;;5.03;;
63218;SDS011;49320;52.512;13.448;2023-03-20T04:00:19;6.03;;;5.05;;
63218;SDS011;49320;52.512;13.448;2023-03-20T04:02:52;7.35;;;5.53;;
63218;SDS011;49320;52.512;13.448;2023-03-20T04:05:23;8.40;;;5.85;;
63218;SDS011;49320;52.512;13.448;2023-03-20T04:10:24;5.90;;;5.00;;
63218;SDS011;49320;52.512;13.448;2023-03-20T04:12:51;5.25;;;4.75;;
63218;SDS011;49320;52.512;13.448;2023-03-20T04:15:18;5.88;;;4.63;;
63218;SDS011;49320;52.512;13.448;2023-03-20T04:17:46;5.90;;;4.85;;
63218;SDS011;49320;52.512;13.448;2023-03-20T04:20:13;5.05;;;4.55;;
63218;SDS011;49320;52.512;13.448;2023-03-20T04:22:41;5.55;;;4.95;;
63218;SDS011;49320;52.512;13.448;2023-03-20T04:25:08;6.63;;;5.22;;
63218;SDS011;49320;52.512;13.448;2023-03-20T04:27:42;7.93;;;5.25;;
63218;SDS011;49320;52.512;13.448;2023-03-20T04:30:09;7.25;;;5.05;;
63218;SDS011;49320;52.512;13.448;2023-03-20T04:32:36;6.95;;;4.82;;
63218;SDS011;49320;52.512;13.448;2023-03-20T04:35:04;7.28;;;5.75;;
63218;SDS011;49320;52.512;13.448;2023-03-20T04:37:32;5.97;;;5.25;;
63218;SDS011;49320;52.512;13.448;2023-03-20T04:39:59;6.88;;;5.70;;
63218;SDS011;49320;52.512;13.448;2023-03-20T04:42:26;6.13;;;5.53;;
63218;SDS011;49320;52.512;13.448;2023-03-20T04:44:53;7.25;;;5.57;;
63218;SDS011;49320;52.512;13.448;2023-03-20T04:47:20;6.78;;;5.50;;
63218;SDS011;49320;52.512;13.448;2023-03-20T04:49:46;7.18;;;6.10;;
63218;SDS011;49320;52.512;13.448;2023-03-20T04:52:13;6.97;;;6.28;;
63218;SDS011;49320;52.512;13.448;2023-03-20T04:54:40;6.65;;;5.80;;
63218;SDS011;49320;52.512;13.448;2023-03-20T04:57:07;5.90;;;5.30;;
63218;SDS011;49320;52.512;13.448;2023-03-20T04:59:33;6.40;;;5.80;;
63218;SDS011;49320;52.512;13.448;2023-03-20T05:02:00;6.57;;;5.97;;
63218;SDS011;49320;52.512;13.448;2023-03-20T05:04:27;8.50;;;7.10;;
63218;SDS011;49320;52.512;13.448;2023-03-20T05:06:54;6.78;;;6.00;;
63218;SDS011;49320;52.512;13.448;2023-03-20T05:09:21;6.80;;;5.90;;
63218;SDS011;49320;52.512;13.448;2023-03-20T05:11:48;7.45;;;5.82;;
63218;SDS011;49320;52.512;13.448;2023-03-20T05:14:15;8.93;;;6.10;;
63218;SDS011;49320;52.512;13.448;2023-03-20T05:16:42;7.72;;;6.20;;
63218;SDS011;49320;52.512;13.448;2023-03-20T05:19:09;6.68;;;5.97;;
63218;SDS011;49320;52.512;13.448;2023-03-20T05:21:36;9.13;;;7.63;;
63218;SDS011;49320;52.512;13.448;2023-03-20T05:24:03;8.30;;;6.90;;
63218;SDS011;49320;52.512;13.448;2023-03-20T05:26:30;8.57;;;6.35;;
63218;SDS011;49320;52.512;13.448;2023-03-20T05:28:57;9.15;;;7.47;;
63218;SDS011;49320;52.512;13.448;2023-03-20T05:31:24;9.43;;;7.28;;
63218;SDS011;49320;52.512;13.448;2023-03-20T05:33:51;10.38;;;7.60;;
63218;SDS011;49320;52.512;13.448;2023-03-20T05:36:17;10.77;;;7.82;;
63218;SDS011;49320;52.512;13.448;2023-03-20T05:38:44;9.15;;;6.95;;
63218;SDS011;49320;52.512;13.448;2023-03-20T05:41:12;9.93;;;6.80;;
63218;SDS011;49320;52.512;13.448;2023-03-20T05:43:39;7.63;;;6.40;;
63218;SDS011;49320;52.512;13.448;2023-03-20T05:46:06;6.85;;;6.10;;
63218;SDS011;49320;52.512;13.448;2023-03-20T05:48:33;6.95;;;6.25;;
63218;SDS011;49320;52.512;13.448;2023-03-20T05:50:59;7.00;;;5.95;;
63218;SDS011;49320;52.512;13.448;2023-03-20T05:53:27;8.18;;;6.97;;
63218;SDS011;49320;52.512;13.448;2023-03-20T05:55:53;6.22;;;5.53;;
63218;SDS011;49320;52.512;13.448;2023-03-20T05:58:20;8.82;;;6.45;;
63218;SDS011;49320;52.512;13.448;2023-03-20T06:00:47;8.57;;;7.00;;
63218;SDS011;49320;52.512;13.448;2023-03-20T06:03:14;8.90;;;7.18;;
63218;SDS011;49320;52.512;13.448;2023-03-20T06:05:41;7.15;;;6.45;;
63218;SDS011;49320;52.512;13.448;2023-03-20T06:08:09;8.38;;;7.03;;
63218;SDS011;49320;52.512;13.448;2023-03-20T06:10:36;9.52;;;7.53;;
63218;SDS011;49320;52.512;13.448;2023-03-20T06:13:02;9.13;;;7.80;;
63218;SDS011;49320;52.512;13.448;2023-03-20T06:15:29;9.50;;;7.43;;
63218;SDS011;49320;52.512;13.448;2023-03-20T06:17:56;9.70;;;7.63;;
63218;SDS011;49320;52.512;13.448;2023-03-20T06:20:24;9.05;;;8.15;;
63218;SDS011;49320;52.512;13.448;2023-03-20T06:22:51;9.35;;;8.43;;
63218;SDS011;49320;52.512;13.448;2023-03-20T06:25:18;9.93;;;8.93;;
63218;SDS011;49320;52.512;13.448;2023-03-20T06:27:46;12.45;;;11.15;;
63218;SDS011;49320;52.512;13.448;2023-03-20T06:30:14;12.85;;;11.55;;
63218;SDS011;49320;52.512;13.448;2023-03-20T06:32:41;13.68;;;12.30;;
63218;SDS011;49320;52.512;13.448;2023-03-20T06:35:09;12.00;;;10.80;;
63218;SDS011;49320;52.512;13.448;2023-03-20T06:37:36;13.30;;;11.45;;
63218;SDS011;49320;52.512;13.448;2023-03-20T06:40:04;14.38;;;12.10;;
63218;SDS011;49320;52.512;13.448;2023-03-20T06:42:32;13.60;;;12.20;;
63218;SDS011;49320;52.512;13.448;2023-03-20T06:44:58;17.52;;;13.90;;
63218;SDS011;49320;52.512;13.448;2023-03-20T06:47:26;16.40;;;13.68;;
63218;SDS011;49320;52.512;13.448;2023-03-20T06:49:53;16.50;;;13.75;;
63218;SDS011;49320;52.512;13.448;2023-03-20T06:52:19;15.63;;;13.32;;
63218;SDS011;49320;52.512;13.448;2023-03-20T06:54:47;14.45;;;12.95;;
63218;SDS011;49320;52.512;13.448;2023-03-20T06:57:16;14.57;;;12.50;;
63218;SDS011;49320;52.512;13.448;2023-03-20T06:59:43;15.75;;;14.07;;
63218;SDS011;49320;52.512;13.448;2023-03-20T07:02:10;16.73;;;14.65;;
63218;SDS011;49320;52.512;13.448;2023-03-20T07:04:37;19.20;;;15.82;;
63218;SDS011;49320;52.512;13.448;2023-03-20T07:07:04;18.65;;;14.75;;
63218;SDS011;49320;52.512;13.448;2023-03-20T07:09:31;16.83;;;13.73;;
63218;SDS011;49320;52.512;13.448;2023-03-20T07:11:59;19.90;;;15.98;;
63218;SDS011;49320;52.512;13.448;2023-03-20T07:14:26;16.42;;;14.82;;
63218;SDS011;49320;52.512;13.448;2023-03-20T07:16:52;20.73;;;17.13;;
63218;SDS011;49320;52.512;13.448;2023-03-20T07:19:21;22.65;;;19.52;;
63218;SDS011;49320;52.512;13.448;2023-03-20T07:21:48;22.73;;;19.98;;
63218;SDS011;49320;52.512;13.448;2023-03-20T07:24:20;26.08;;;21.80;;
63218;SDS011;49320;52.512;13.448;2023-03-20T07:26:47;25.63;;;21.70;;
63218;SDS011;49320;52.512;13.448;2023-03-20T07:29:13;24.88;;;19.40;;
63218;SDS011;49320;52.512;13.448;2023-03-20T07:31:40;21.38;;;18.42;;
63218;SDS011;49320;52.512;13.448;2023-03-20T07:34:07;24.05;;;20.55;;
63218;SDS011;49320;52.512;13.448;2023-03-20T07:36:34;24.30;;;20.38;;
63218;SDS011;49320;52.512;13.448;2023-03-20T07:39:01;21.48;;;18.52;;
63218;SDS011;49320;52.512;13.448;2023-03-20T07:41:28;22.35;;;19.00;;
63218;SDS011;49320;52.512;13.448;2023-03-20T07:43:54;21.92;;;18.00;;
63218;SDS011;49320;52.512;13.448;2023-03-20T07:46:21;25.73;;;20.65;;
63218;SDS011;49320;52.512;13.448;2023-03-20T07:48:48;24.77;;;20.48;;
63218;SDS011;49320;52.512;13.448;2023-03-20T07:51:15;20.55;;;17.77;;
63218;SDS011;49320;52.512;13.448;2023-03-20T07:53:43;22.50;;;17.98;;
63218;SDS011;49320;52.512;13.448;2023-03-20T07:56:09;26.58;;;20.08;;
63218;SDS011;49320;52.512;13.448;2023-03-20T07:58:36;22.65;;;18.52;;
63218;SDS011;49320;52.512;13.448;2023-03-20T08:01:03;23.35;;;18.40;;
63218;SDS011;49320;52.512;13.448;2023-03-20T08:03:30;23.33;;;17.30;;
63218;SDS011;49320;52.512;13.448;2023-03-20T08:05:57;22.50;;;17.38;;
63218;SDS011;49320;52.512;13.448;2023-03-20T08:08:24;21.35;;;15.98;;
63218;SDS011;49320;52.512;13.448;2023-03-20T08:10:51;19.55;;;15.70;;
63218;SDS011;49320;52.512;13.448;2023-03-20T08:13:18;20.90;;;16.75;;
63218;SDS011;49320;52.512;13.448;2023-03-20T08:15:45;22.15;;;18.00;;
63218;SDS011;49320;52.512;13.448;2023-03-20T08:18:12;18.85;;;15.38;;
63218;SDS011;49320;52.512;13.448;2023-03-20T08:20:39;19.85;;;16.30;;
63218;SDS011;49320;52.512;13.448;2023-03-20T08:23:06;20.35;;;16.48;;
63218;SDS011;49320;52.512;13.448;2023-03-20T08:25:33;23.63;;;16.95;;
63218;SDS011;49320;52.512;13.448;2023-03-20T08:28:00;21.25;;;15.90;;
63218;SDS011;49320;52.512;13.448;2023-03-20T08:30:27;23.88;;;16.92;;
63218;SDS011;49320;52.512;13.448;2023-03-20T08:32:54;22.90;;;17.55;;
63218;SDS011;49320;52.512;13.448;2023-03-20T08:35:23;23.25;;;16.63;;
63218;SDS011;49320;52.512;13.448;2023-03-20T08:38:13;24.35;;;17.15;;
63218;SDS011;49320;52.512;13.448;2023-03-20T08:40:40;20.67;;;16.33;;
63218;SDS011;49320;52.512;13.448;2023-03-20T08:43:07;21.38;;;15.30;;
63218;SDS011;49320;52.512;13.448;2023-03-20T08:45:34;20.00;;;15.27;;
63218;SDS011;49320;52.512;13.448;2023-03-20T08:48:01;22.17;;;14.82;;
63218;SDS011;49320;52.512;13.448;2023-03-20T08:50:29;20.40;;;16.13;;
63218;SDS011;49320;52.512;13.448;2023-03-20T08:52:55;18.92;;;14.93;;
63218;SDS011;49320;52.512;13.448;2023-03-20T08:55:22;22.00;;;16.10;;
63218;SDS011;49320;52.512;13.448;2023-03-20T08:57:51;19.35;;;14.95;;
63218;SDS011;49320;52.512;13.448;2023-03-20T09:00:19;20.95;;;16.20;;
63218;SDS011;49320;52.512;13.448;2023-03-20T09:02:47;21.45;;;15.60;;
63218;SDS011;49320;52.512;13.448;2023-03-20T09:05:15;22.67;;;17.58;;
63218;SDS011;49320;52.512;13.448;2023-03-20T09:07:42;19.35;;;15.80;;
63218;SDS011;49320;52.512;13.448;2023-03-20T09:10:10;18.50;;;15.02;;
63218;SDS011;49320;52.512;13.448;2023-03-20T09:12:38;17.63;;;13.82;;
63218;SDS011;49320;52.512;13.448;2023-03-20T09:15:05;22.77;;;16.08;;
63218;SDS011;49320;52.512;13.448;2023-03-20T09:17:33;23.35;;;17.02;;
63218;SDS011;49320;52.512;13.448;2023-03-20T09:20:00;19.13;;;15.88;;
63218;SDS011;49320;52.512;13.448;2023-03-20T09:22:27;18.85;;;13.93;;
63218;SDS011;49320;52.512;13.448;2023-03-20T09:24:54;18.20;;;13.90;;
63218;SDS011;49320;52.512;13.448;2023-03-20T09:27:20;16.38;;;12.82;;
63218;SDS011;49320;52.512;13.448;2023-03-20T09:29:47;18.38;;;13.20;;
63218;SDS011;49320;52.512;13.448;2023-03-20T09:32:14;16.33;;;13.20;;
63218;SDS011;49320;52.512;13.448;2023-03-20T09:34:41;15.13;;;12.65;;
63218;SDS011;49320;52.512;13.448;2023-03-20T09:37:08;16.95;;;12.05;;
63218;SDS011;49320;52.512;13.448;2023-03-20T09:39:35;15.88;;;11.77;;
63218;SDS011;49320;52.512;13.448;2023-03-20T09:42:07;15.15;;;12.18;;
63218;SDS011;49320;52.512;13.448;2023-03-20T09:47:37;15.82;;;11.20;;
63218;SDS011;49320;52.512;13.448;2023-03-20T09:53:10;15.07;;;10.95;;
63218;SDS011;49320;52.512;13.448;2023-03-20T09:56:04;13.18;;;10.25;;
63218;SDS011;49320;52.512;13.448;2023-03-20T09:58:44;14.65;;;9.43;;
63218;SDS011;49320;52.512;13.448;2023-03-20T10:01:21;14.32;;;9.30;;
63218;SDS011;49320;52.512;13.448;2023-03-20T10:03:57;11.93;;;10.00;;
63218;SDS011;49320;52.512;13.448;2023-03-20T10:06:32;13.13;;;9.38;;
63218;SDS011;49320;52.512;13.448;2023-03-20T10:08:59;14.80;;;9.75;;
63218;SDS011;49320;52.512;13.448;2023-03-20T10:19:56;11.10;;;8.48;;
63218;SDS011;49320;52.512;13.448;2023-03-20T10:22:49;10.95;;;7.97;;
63218;SDS011;49320;52.512;13.448;2023-03-20T10:28:12;9.82;;;7.82;;
63218;SDS011;49320;52.512;13.448;2023-03-20T10:30:53;11.80;;;7.60;;
63218;SDS011;49320;52.512;13.448;2023-03-20T10:36:55;10.65;;;7.88;;
63218;SDS011;49320;52.512;13.448;2023-03-20T10:42:32;12.60;;;8.82;;
63218;SDS011;49320;52.512;13.448;2023-03-20T10:45:18;13.43;;;8.88;;
63218;SDS011;49320;52.512;13.448;2023-03-20T10:48:03;10.00;;;8.27;;
63218;SDS011;49320;52.512;13.448;2023-03-20T10:50:42;11.05;;;8.07;;
63218;SDS011;49320;52.512;13.448;2023-03-20T10:53:19;10.38;;;7.65;;
63218;SDS011;49320;52.512;13.448;2023-03-20T10:55:55;10.85;;;7.63;;
63218;SDS011;49320;52.512;13.448;2023-03-20T10:58:37;10.60;;;7.40;;
63218;SDS011;49320;52.512;13.448;2023-03-20T11:01:07;10.35;;;7.75;;
63218;SDS011;49320;52.512;13.448;2023-03-20T11:03:34;10.20;;;7.47;;
63218;SDS011;49320;52.512;13.448;2023-03-20T11:06:18;11.80;;;7.13;;
63218;SDS011;49320;52.512;13.448;2023-03-20T11:08:53;8.50;;;6.90;;
63218;SDS011;49320;52.512;13.448;2023-03-20T11:11:27;10.75;;;6.90;;
63218;SDS011;49320;52.512;13.448;2023-03-20T11:14:08;10.30;;;6.82;;
63218;SDS011;49320;52.512;13.448;2023-03-20T11:16:51;7.47;;;5.97;;
63218;SDS011;49320;52.512;13.448;2023-03-20T11:19:21;8.77;;;6.50;;
63218;SDS011;49320;52.512;13.448;2023-03-20T11:21:54;7.82;;;6.35;;
63218;SDS011;49320;52.512;13.448;2023-03-20T11:24:26;9.60;;;6.70;;
63218;SDS011;49320;52.512;13.448;2023-03-20T11:27:16;8.52;;;6.10;;
63218;SDS011;49320;52.512;13.448;2023-03-20T11:29:49;7.40;;;5.53;;
63218;SDS011;49320;52.512;13.448;2023-03-20T11:32:22;8.40;;;6.30;;
63218;SDS011;49320;52.512;13.448;2023-03-20T11:35:18;7.60;;;6.03;;
63218;SDS011;49320;52.512;13.448;2023-03-20T11:37:54;8.32;;;6.38;;
63218;SDS011;49320;52.512;13.448;2023-03-20T11:40:42;8.05;;;6.30;;
63218;SDS011;49320;52.512;13.448;2023-03-20T11:43:18;8.50;;;6.10;;
63218;SDS011;49320;52.512;13.448;2023-03-20T11:45:50;9.02;;;6.80;;
63218;SDS011;49320;52.512;13.448;2023-03-20T11:48:36;9.15;;;7.30;;
63218;SDS011;49320;52.512;13.448;2023-03-20T11:51:07;9.13;;;6.85;;
63218;SDS011;49320;52.512;13.448;2023-03-20T11:53:41;7.90;;;6.07;;
63218;SDS011;49320;52.512;13.448;2023-03-20T11:56:27;8.35;;;6.45;;
63218;SDS011;49320;52.512;13.448;2023-03-20T11:59:02;8.63;;;6.10;;
63218;SDS011;49320;52.512;13.448;2023-03-20T12:01:36;9.50;;;6.35;;
63218;SDS011;49320;52.512;13.448;2023-03-20T12:04:33;8.27;;;5.80;;
63218;SDS011;49320;52.512;13.448;2023-03-20T12:10:05;8.48;;;6.22;;
63218;SDS011;49320;52.512;13.448;2023-03-20T12:15:39;9.68;;;6.38;;
63218;SDS011;49320;52.512;13.448;2023-03-20T12:21:02;9.10;;;5.93;;
63218;SDS011;49320;52.512;13.448;2023-03-20T12:23:39;10.00;;;6.50;;
63218;SDS011;49320;52.512;13.448;2023-03-20T12:26:13;9.40;;;6.57;;
63218;SDS011;49320;52.512;13.448;2023-03-20T12:28:59;7.72;;;5.57;;
63218;SDS011;49320;52.512;13.448;2023-03-20T12:31:41;11.15;;;6.45;;
63218;SDS011;49320;52.512;13.448;2023-03-20T12:34:20;11.95;;;7.18;;
63218;SDS011;49320;52.512;13.448;2023-03-20T12:37:14;10.00;;;6.47;;
63218;SDS011;49320;52.512;13.448;2023-03-20T12:39:49;10.38;;;6.82;;
63218;SDS011;49320;52.512;13.448;2023-03-20T12:42:34;8.85;;;6.38;;
63218;SDS011;49320;52.512;13.448;2023-03-20T12:45:38;9.20;;;6.05;;
63218;SDS011;49320;52.512;13.448;2023-03-20T12:48:19;8.43;;;6.35;;
63218;SDS011;49320;52.512;13.448;2023-03-20T12:59:23;9.20;;;6.85;;
63218;SDS011;49320;52.512;13.448;2023-03-20T13:02:15;9.07;;;6.75;;
63218;SDS011;49320;52.512;13.448;2023-03-20T13:07:51;11.38;;;7.47;;
63218;SDS011;49320;52.512;13.448;2023-03-20T13:13:51;9.48;;;7.20;;
63218;SDS011;49320;52.512;13.448;2023-03-20T13:19:10;8.77;;;6.95;;
63218;SDS011;49320;52.512;13.448;2023-03-20T13:22:01;11.52;;;7.53;;
63218;SDS011;49320;52.512;13.448;2023-03-20T13:34:24;9.68;;;7.43;;
63218;SDS011;49320;52.512;13.448;2023-03-20T13:37:38;10.05;;;7.78;;
63218;SDS011;49320;52.512;13.448;2023-03-20T13:40:15;10.35;;;7.88;;
63218;SDS011;49320;52.512;13.448;2023-03-20T13:45:42;11.13;;;8.00;;
63218;SDS011;49320;52.512;13.448;2023-03-20T14:00:36;12.82;;;9.13;;
63218;SDS011;49320;52.512;13.448;2023-03-20T14:03:30;13.50;;;9.38;;
63218;SDS011;49320;52.512;13.448;2023-03-20T14:06:41;15.20;;;9.40;;
63218;SDS011;49320;52.512;13.448;2023-03-20T14:09:28;13.75;;;9.45;;
63218;SDS011;49320;52.512;13.448;2023-03-20T14:12:09;12.32;;;9.10;;
63218;SDS011;49320;52.512;13.448;2023-03-20T14:14:56;13.35;;;9.48;;
63218;SDS011;49320;52.512;13.448;2023-03-20T14:19:55;12.80;;;9.57;;
63218;SDS011;49320;52.512;13.448;2023-03-20T14:22:44;11.90;;;8.30;;
63218;SDS011;49320;52.512;13.448;2023-03-20T14:25:16;11.27;;;8.60;;
63218;SDS011;49320;52.512;13.448;2023-03-20T14:30:42;10.98;;;8.48;;
63218;SDS011;49320;52.512;13.448;2023-03-20T14:35:44;11.73;;;8.70;;
63218;SDS011;49320;52.512;13.448;2023-03-20T14:38:20;12.23;;;9.75;;
63218;SDS011;49320;52.512;13.448;2023-03-20T14:41:04;11.90;;;8.98;;
63218;SDS011;49320;52.512;13.448;2023-03-20T14:46:53;12.77;;;8.85;;
63218;SDS011;49320;52.512;13.448;2023-03-20T14:49:57;9.60;;;7.65;;
63218;SDS011;49320;52.512;13.448;2023-03-20T14:52:59;14.25;;;8.93;;
63218;SDS011;49320;52.512;13.448;2023-03-20T14:55:47;11.32;;;8.43;;
63218;SDS011;49320;52.512;13.448;2023-03-20T14:58:35;14.35;;;9.20;;
63218;SDS011;49320;52.512;13.448;2023-03-20T15:01:32;13.30;;;10.07;;
63218;SDS011;49320;52.512;13.448;2023-03-20T15:04:27;12.23;;;8.25;;
63218;SDS011;49320;52.512;13.448;2023-03-20T15:07:05;14.90;;;10.10;;
63218;SDS011;49320;52.512;13.448;2023-03-20T15:09:46;12.65;;;10.07;;
63218;SDS011;49320;52.512;13.448;2023-03-20T15:12:29;15.63;;;10.10;;
63218;SDS011;49320;52.512;13.448;2023-03-20T15:15:02;13.27;;;10.43;;
63218;SDS011;49320;52.512;13.448;2023-03-20T15:17:34;14.25;;;10.10;;
63218;SDS011;49320;52.512;13.448;2023-03-20T15:20:14;15.77;;;10.15;;
63218;SDS011;49320;52.512;13.448;2023-03-20T15:22:57;13.63;;;9.77;;
63218;SDS011;49320;52.512;13.448;2023-03-20T15:25:34;15.02;;;10.43;;
63218;SDS011;49320;52.512;13.448;2023-03-20T15:28:06;14.80;;;9.98;;
63218;SDS011;49320;52.512;13.448;2023-03-20T15:30:35;12.52;;;10.20;;
63218;SDS011;49320;52.512;13.448;2023-03-20T15:33:05;12.32;;;9.68;;
63218;SDS011;49320;52.512;13.448;2023-03-20T15:35:41;15.70;;;10.07;;
63218;SDS011;49320;52.512;13.448;2023-03-20T15:38:10;14.07;;;10.30;;
63218;SDS011;49320;52.512;13.448;2023-03-20T15:40:42;15.05;;;10.95;;
63218;SDS011;49320;52.512;13.448;2023-03-20T15:45:51;13.10;;;9.57;;
63218;SDS011;49320;52.512;13.448;2023-03-20T15:48:45;11.73;;;9.43;;
63218;SDS011;49320;52.512;13.448;2023-03-20T15:51:13;11.82;;;9.25;;
63218;SDS011;49320;52.512;13.448;2023-03-20T15:53:43;13.00;;;9.40;;
63218;SDS011;49320;52.512;13.448;2023-03-20T15:56:14;13.10;;;8.93;;
63218;SDS011;49320;52.512;13.448;2023-03-20T15:58:49;14.38;;;10.23;;
63218;SDS011;49320;52.512;13.448;2023-03-20T16:01:18;12.75;;;10.10;;
63218;SDS011;49320;52.512;13.448;2023-03-20T16:03:49;11.40;;;10.00;;
63218;SDS011;49320;52.512;13.448;2023-03-20T16:06:19;14.32;;;10.57;;
63218;SDS011;49320;52.512;13.448;2023-03-20T16:08:55;13.10;;;10.35;;
63218;SDS011;49320;52.512;13.448;2023-03-20T16:11:40;12.45;;;10.27;;
63218;SDS011;49320;52.512;13.448;2023-03-20T16:14:13;14.18;;;10.55;;
63218;SDS011;49320;52.512;13.448;2023-03-20T16:16:50;11.70;;;9.88;;
63218;SDS011;49320;52.512;13.448;2023-03-20T16:19:21;13.45;;;9.30;;
63218;SDS011;49320;52.512;13.448;2023-03-20T16:21:55;11.18;;;9.23;;
63218;SDS011;49320;52.512;13.448;2023-03-20T16:24:35;11.30;;;8.70;;
63218;SDS011;49320;52.512;13.448;2023-03-20T16:27:06;14.35;;;10.27;;
63218;SDS011;49320;52.512;13.448;2023-03-20T16:29:34;12.48;;;9.85;;
63218;SDS011;49320;52.512;13.448;2023-03-20T16:32:05;12.40;;;8.88;;
63218;SDS011;49320;52.512;13.448;2023-03-20T16:34:47;14.35;;;10.55;;
63218;SDS011;49320;52.512;13.448;2023-03-20T16:37:21;14.27;;;10.63;;
63218;SDS011;49320;52.512;13.448;2023-03-20T16:40:12;11.15;;;8.80;;
63218;SDS011;49320;52.512;13.448;2023-03-20T16:43:11;11.55;;;9.23;;
63218;SDS011;49320;52.512;13.448;2023-03-20T16:45:48;11.70;;;9.10;;
63218;SDS011;49320;52.512;13.448;2023-03-20T16:48:24;11.95;;;9.93;;
63218;SDS011;49320;52.512;13.448;2023-03-20T16:50:59;11.30;;;9.32;;
63218;SDS011;49320;52.512;13.448;2023-03-20T16:53:48;12.10;;;9.63;;
63218;SDS011;49320;52.512;13.448;2023-03-20T16:56:23;10.43;;;8.70;;
63218;SDS011;49320;52.512;13.448;2023-03-20T16:59:06;15.25;;;10.13;;
63218;SDS011;49320;52.512;13.448;2023-03-20T17:01:40;10.80;;;9.00;;
63218;SDS011;49320;52.512;13.448;2023-03-20T17:04:12;12.55;;;10.05;;
63218;SDS011;49320;52.512;13.448;2023-03-20T17:06:49;13.43;;;9.63;;
63218;SDS011;49320;52.512;13.448;2023-03-20T17:09:24;13.68;;;9.60;;
63218;SDS011;49320;52.512;13.448;2023-03-20T17:11:59;12.15;;;9.20;;
63218;SDS011;49320;52.512;13.448;2023-03-20T17:14:38;13.13;;;9.73;;
63218;SDS011;49320;52.512;13.448;2023-03-20T17:17:18;12.65;;;10.13;;